Impacts TAF Board
For situational awareness. Not to be used for flight planning purposes.
IDs:

KORD - Chicago/O'Hare Intl, IL, US

Issued at 1139 UTC 21 Nov 2018
Updated at 1347 UTC 21 Nov 2018
Potential Impact None Slight Moderate High
Time<<22/02Z 22/03Z 22/04Z 22/05Z 22/06Z 22/07Z 22/08Z 22/09Z 22/10Z 22/11Z 22/12Z 22/13Z 22/14Z>>
Type PRVL PRVL PRVL PRVL PRVL PRVL PRVL PRVL PRVL PRVL PRVL PRVL PRVL
VIS >6 >6 >6 >6 >6 >6 >6 >6 >6 >6 >6 >6 >6
CIG 35 25 25 25 25 25 25 35 35 35 35 35 35
Cover OVC OVC OVC OVC OVC OVC OVC BKN BKN BKN BKN BKN BKN
FltCat VFR MVFR MVFR MVFR MVFR MVFR MVFR VFR VFR VFR VFR VFR VFR
WX -- -- -- -- -- -- -- -- -- -- -- -- --
WDir 30 80 80 80 80 80 80 130 130 130 130 130 130
WSpd 10 7 7 7 7 7 7 7 7 7 7 7 7
WGst -- -- -- -- -- -- -- -- -- -- -- -- --
Raw TAF
KORD 211139Z 2112/2218 34009KT P6SM OVC020
  FM211500 01012KT P6SM OVC025
  FM212000 03010KT P6SM FEW025 OVC035
  FM220300 08007KT P6SM OVC025
  FM220900 13007KT P6SM BKN035


METAR Board
Radar Display
Forecast Discussion
For situational awareness. Not to be used for flight planning purposes.